Alex, Minnesota
Current Conditions -  °F | °C
As of 7:53 PM on Saturday 25 Oct 2014 (Local Time) from KAXN Reporting Station
Clear Clear  
Wind Chill: 42°   Ceiling: Unl
Heat Index: 45°   Visibility: 10mi
Dew Point: 27°   Wind: 6mph
Humidity: 49%   Direction: 270°W
Pressure: 30.07"   Gusts: NA
Location:  45.8551°N, 95.4333°W
Report Text: KAXN 260053Z AUTO 27005KT 10SM CLR 07/M03 A3007 RMK AO2 SLP193 T00721028
Loading
Personal Weather Stations






























Interactive Weather Map
Tropical Storm Tracking
New forecast layout! Learn more

10-Day Weather Forecast

Advertisements
Track Severe Weather on mobile